This is the latest recevied weather packets stored in our database for station/object KC3UTO. If no packets are shown the sender has not sent any weather packets the latest 10 day(s).
| Time | Temp. | Humidity | Pressure | Rain* | Wind** | Luminosity | Snow |
|---|---|---|---|---|---|---|---|
| 1777146137 | 7.22° C | 90% | 1013.8 hPa | 1.78 mm | - | 66 W/m² | - |
| 1777145836 | 7.22° C | 90% | 1013.6 hPa | 1.78 mm | - | 91 W/m² | - |
| 1777145533 | 7.22° C | 90% | 1013.4 hPa | 2.29 mm | - | 129 W/m² | - |
| 1777145228 | 7.22° C | 90% | 1013.8 hPa | 2.29 mm | - | 139 W/m² | - |
| 1777144924 | 7.22° C | 90% | 1014.1 hPa | 2.29 mm | - | 102 W/m² | - |
| 1777144623 | 7.22° C | 89% | 1014.4 hPa | 2.29 mm | - | 73 W/m² | - |
| 1777144319 | 7.22° C | 89% | 1014.5 hPa | 1.78 mm | - | 67 W/m² | - |
| 1777144015 | 7.22° C | 89% | 1014.4 hPa | 1.78 mm | - | 94 W/m² | - |
| 1777143711 | 7.78° C | 89% | 1014.3 hPa | 1.78 mm | - | 89 W/m² | - |
| 1777143407 | 7.78° C | 88% | 1014.4 hPa | 1.78 mm | - | 93 W/m² | - |
| 1777143103 | 7.78° C | 89% | 1013.8 hPa | 1.78 mm | - | 123 W/m² | - |
| 1777142799 | 7.78° C | 88% | 1014.2 hPa | 1.27 mm | - | 131 W/m² | - |
| 1777142497 | 7.78° C | 88% | 1014.2 hPa | 1.27 mm | - | 120 W/m² | - |
| 1777142195 | 7.78° C | 87% | 1014.5 hPa | 1.27 mm | - | 138 W/m² | - |
| 1777141892 | 7.78° C | 87% | 1014.7 hPa | 1.78 mm | - | 114 W/m² | - |
| 1777141589 | 7.78° C | 87% | 1014.8 hPa | 1.78 mm | - | 99 W/m² | - |
| 1777141289 | 7.78° C | 87% | 1014.6 hPa | 1.78 mm | - | 129 W/m² | - |
| 1777140985 | 7.78° C | 85% | 1014.6 hPa | 3.05 mm | - | 164 W/m² | - |
| 1777140681 | 7.78° C | 82% | 1014.6 hPa | 3.05 mm | - | 124 W/m² | - |
| 1777140378 | 8.33° C | 82% | 1014.7 hPa | 5.33 mm | - | 112 W/m² | - |
| 1777140076 | 8.89° C | 76% | 1015.2 hPa | 4.32 mm | - | 74 W/m² | - |
| 1777139774 | 8.89° C | 72% | 1015.2 hPa | 0.51 mm | - | 76 W/m² | - |
| 1777139469 | 9.44° C | 69% | 1015.6 hPa | 0 mm | - | 72 W/m² | - |
| 1777139164 | 9.44° C | 68% | 1015.2 hPa | 0 mm | - | 101 W/m² | - |
| 1777138861 | 9.44° C | 71% | 1015.3 hPa | 0 mm | - | 66 W/m² | - |
* Rain latest hour (hover to see other rain measurements)
** Current wind speed in m/s (hover to see current wind gust speed)